sensor_id;sensor_type;location;lat;lon;timestamp;P1;durP1;ratioP1;P2;durP2;ratioP2
27740;SDS011;15134;48.768;9.184;2023-02-01T00:00:50;794.40;;;604.60;;
27740;SDS011;15134;48.768;9.184;2023-02-01T00:03:15;794.03;;;602.50;;
27740;SDS011;15134;48.768;9.184;2023-02-01T00:05:44;797.47;;;606.90;;
27740;SDS011;15134;48.768;9.184;2023-02-01T00:08:09;796.05;;;607.55;;
27740;SDS011;15134;48.768;9.184;2023-02-01T00:10:35;795.83;;;605.53;;
27740;SDS011;15134;48.768;9.184;2023-02-01T00:13:01;797.60;;;608.63;;
27740;SDS011;15134;48.768;9.184;2023-02-01T00:15:26;798.30;;;610.70;;
27740;SDS011;15134;48.768;9.184;2023-02-01T00:17:53;795.53;;;608.03;;
27740;SDS011;15134;48.768;9.184;2023-02-01T00:20:22;797.08;;;606.20;;
27740;SDS011;15134;48.768;9.184;2023-02-01T00:22:48;800.03;;;614.95;;
27740;SDS011;15134;48.768;9.184;2023-02-01T00:25:14;796.40;;;607.10;;
27740;SDS011;15134;48.768;9.184;2023-02-01T00:27:48;799.25;;;613.78;;
27740;SDS011;15134;48.768;9.184;2023-02-01T00:30:15;794.42;;;601.22;;
27740;SDS011;15134;48.768;9.184;2023-02-01T00:32:43;796.72;;;607.55;;
27740;SDS011;15134;48.768;9.184;2023-02-01T00:35:08;795.45;;;606.97;;
27740;SDS011;15134;48.768;9.184;2023-02-01T00:37:35;789.23;;;594.57;;
27740;SDS011;15134;48.768;9.184;2023-02-01T00:40:01;794.53;;;605.10;;
27740;SDS011;15134;48.768;9.184;2023-02-01T00:42:27;794.13;;;602.57;;
27740;SDS011;15134;48.768;9.184;2023-02-01T00:44:53;795.35;;;611.45;;
27740;SDS011;15134;48.768;9.184;2023-02-01T00:47:22;797.15;;;610.78;;
27740;SDS011;15134;48.768;9.184;2023-02-01T00:49:50;799.25;;;616.33;;
27740;SDS011;15134;48.768;9.184;2023-02-01T00:52:16;798.00;;;613.07;;
27740;SDS011;15134;48.768;9.184;2023-02-01T00:54:42;797.75;;;613.10;;
27740;SDS011;15134;48.768;9.184;2023-02-01T00:57:07;801.72;;;625.17;;
27740;SDS011;15134;48.768;9.184;2023-02-01T00:59:33;800.03;;;617.33;;
27740;SDS011;15134;48.768;9.184;2023-02-01T01:01:59;799.47;;;615.40;;
27740;SDS011;15134;48.768;9.184;2023-02-01T01:04:25;804.13;;;627.00;;
27740;SDS011;15134;48.768;9.184;2023-02-01T01:06:50;803.15;;;624.58;;
27740;SDS011;15134;48.768;9.184;2023-02-01T01:09:16;801.63;;;622.20;;
27740;SDS011;15134;48.768;9.184;2023-02-01T01:11:42;802.28;;;623.83;;
27740;SDS011;15134;48.768;9.184;2023-02-01T01:14:11;798.50;;;616.72;;
27740;SDS011;15134;48.768;9.184;2023-02-01T01:16:37;800.43;;;619.70;;
27740;SDS011;15134;48.768;9.184;2023-02-01T01:19:03;800.70;;;619.50;;
27740;SDS011;15134;48.768;9.184;2023-02-01T01:21:29;803.40;;;625.85;;
27740;SDS011;15134;48.768;9.184;2023-02-01T01:23:55;802.80;;;622.33;;
27740;SDS011;15134;48.768;9.184;2023-02-01T01:26:22;803.00;;;624.15;;
27740;SDS011;15134;48.768;9.184;2023-02-01T01:28:49;799.87;;;617.83;;
27740;SDS011;15134;48.768;9.184;2023-02-01T01:31:16;800.53;;;621.83;;
27740;SDS011;15134;48.768;9.184;2023-02-01T01:33:47;799.17;;;613.88;;
27740;SDS011;15134;48.768;9.184;2023-02-01T01:36:15;799.75;;;618.33;;
27740;SDS011;15134;48.768;9.184;2023-02-01T01:38:41;800.67;;;618.17;;
27740;SDS011;15134;48.768;9.184;2023-02-01T01:41:08;799.72;;;617.08;;
27740;SDS011;15134;48.768;9.184;2023-02-01T01:43:46;799.15;;;615.97;;
27740;SDS011;15134;48.768;9.184;2023-02-01T01:46:18;799.83;;;618.50;;
27740;SDS011;15134;48.768;9.184;2023-02-01T01:51:32;799.57;;;621.50;;
27740;SDS011;15134;48.768;9.184;2023-02-01T01:54:47;801.45;;;624.42;;
27740;SDS011;15134;48.768;9.184;2023-02-01T01:56:56;801.63;;;622.72;;
27740;SDS011;15134;48.768;9.184;2023-02-01T01:59:25;798.35;;;615.70;;
27740;SDS011;15134;48.768;9.184;2023-02-01T02:01:52;804.10;;;630.42;;
27740;SDS011;15134;48.768;9.184;2023-02-01T02:04:18;801.72;;;622.90;;
27740;SDS011;15134;48.768;9.184;2023-02-01T02:06:45;802.92;;;625.65;;
27740;SDS011;15134;48.768;9.184;2023-02-01T02:09:16;796.88;;;613.47;;
27740;SDS011;15134;48.768;9.184;2023-02-01T02:11:42;799.20;;;615.35;;
27740;SDS011;15134;48.768;9.184;2023-02-01T02:14:09;797.50;;;613.23;;
27740;SDS011;15134;48.768;9.184;2023-02-01T02:16:40;802.60;;;626.15;;
27740;SDS011;15134;48.768;9.184;2023-02-01T02:22:12;803.65;;;627.33;;
27740;SDS011;15134;48.768;9.184;2023-02-01T02:31:42;803.03;;;629.47;;
27740;SDS011;15134;48.768;9.184;2023-02-01T02:36:19;805.72;;;632.35;;
27740;SDS011;15134;48.768;9.184;2023-02-01T02:39:15;803.80;;;625.63;;
27740;SDS011;15134;48.768;9.184;2023-02-01T02:42:17;802.90;;;624.17;;
27740;SDS011;15134;48.768;9.184;2023-02-01T02:45:30;803.33;;;627.33;;
27740;SDS011;15134;48.768;9.184;2023-02-01T02:54:06;798.95;;;620.28;;
27740;SDS011;15134;48.768;9.184;2023-02-01T02:56:51;802.50;;;627.40;;
27740;SDS011;15134;48.768;9.184;2023-02-01T02:59:39;797.05;;;612.92;;
27740;SDS011;15134;48.768;9.184;2023-02-01T03:02:27;799.33;;;617.25;;
27740;SDS011;15134;48.768;9.184;2023-02-01T03:05:14;801.75;;;623.65;;
27740;SDS011;15134;48.768;9.184;2023-02-01T03:07:55;797.92;;;613.15;;
27740;SDS011;15134;48.768;9.184;2023-02-01T03:10:29;800.27;;;621.17;;
27740;SDS011;15134;48.768;9.184;2023-02-01T03:15:58;800.45;;;620.10;;
27740;SDS011;15134;48.768;9.184;2023-02-01T03:18:52;803.65;;;628.03;;
27740;SDS011;15134;48.768;9.184;2023-02-01T03:21:34;804.63;;;631.83;;
27740;SDS011;15134;48.768;9.184;2023-02-01T03:24:04;803.60;;;626.58;;
27740;SDS011;15134;48.768;9.184;2023-02-01T03:26:37;806.05;;;630.72;;
27740;SDS011;15134;48.768;9.184;2023-02-01T03:29:12;806.65;;;635.35;;
27740;SDS011;15134;48.768;9.184;2023-02-01T03:31:45;807.08;;;634.15;;
27740;SDS011;15134;48.768;9.184;2023-02-01T03:34:11;808.00;;;634.88;;
27740;SDS011;15134;48.768;9.184;2023-02-01T03:36:50;802.67;;;623.50;;
27740;SDS011;15134;48.768;9.184;2023-02-01T03:39:27;802.13;;;623.17;;
27740;SDS011;15134;48.768;9.184;2023-02-01T03:42:02;794.17;;;608.05;;
27740;SDS011;15134;48.768;9.184;2023-02-01T03:44:32;799.47;;;621.10;;
27740;SDS011;15134;48.768;9.184;2023-02-01T03:47:06;794.92;;;609.38;;
27740;SDS011;15134;48.768;9.184;2023-02-01T03:49:54;796.17;;;608.40;;
27740;SDS011;15134;48.768;9.184;2023-02-01T03:52:28;795.75;;;612.47;;
27740;SDS011;15134;48.768;9.184;2023-02-01T03:55:02;795.05;;;614.97;;
27740;SDS011;15134;48.768;9.184;2023-02-01T03:57:29;796.80;;;617.35;;
27740;SDS011;15134;48.768;9.184;2023-02-01T04:00:21;796.95;;;612.45;;
27740;SDS011;15134;48.768;9.184;2023-02-01T04:02:48;796.37;;;615.63;;
27740;SDS011;15134;48.768;9.184;2023-02-01T04:05:15;794.65;;;607.17;;
27740;SDS011;15134;48.768;9.184;2023-02-01T04:07:48;795.67;;;610.27;;
27740;SDS011;15134;48.768;9.184;2023-02-01T04:10:16;797.80;;;615.58;;
27740;SDS011;15134;48.768;9.184;2023-02-01T04:12:42;794.27;;;610.17;;
27740;SDS011;15134;48.768;9.184;2023-02-01T04:15:08;792.67;;;606.22;;
27740;SDS011;15134;48.768;9.184;2023-02-01T04:17:34;792.90;;;606.53;;
27740;SDS011;15134;48.768;9.184;2023-02-01T04:19:59;794.05;;;603.30;;
27740;SDS011;15134;48.768;9.184;2023-02-01T04:22:25;794.63;;;608.37;;
27740;SDS011;15134;48.768;9.184;2023-02-01T04:24:51;792.70;;;603.43;;
27740;SDS011;15134;48.768;9.184;2023-02-01T04:27:17;795.83;;;612.03;;
27740;SDS011;15134;48.768;9.184;2023-02-01T04:29:43;800.50;;;616.28;;
27740;SDS011;15134;48.768;9.184;2023-02-01T04:32:10;794.75;;;610.67;;
27740;SDS011;15134;48.768;9.184;2023-02-01T04:34:36;798.22;;;616.05;;
27740;SDS011;15134;48.768;9.184;2023-02-01T04:37:01;799.30;;;619.77;;
27740;SDS011;15134;48.768;9.184;2023-02-01T04:39:27;800.72;;;622.88;;
27740;SDS011;15134;48.768;9.184;2023-02-01T04:41:53;801.58;;;625.42;;
27740;SDS011;15134;48.768;9.184;2023-02-01T04:44:19;801.17;;;622.80;;
27740;SDS011;15134;48.768;9.184;2023-02-01T04:46:45;802.90;;;625.33;;
27740;SDS011;15134;48.768;9.184;2023-02-01T04:49:13;805.97;;;631.25;;
27740;SDS011;15134;48.768;9.184;2023-02-01T04:51:41;805.15;;;629.30;;
27740;SDS011;15134;48.768;9.184;2023-02-01T04:54:07;802.55;;;628.10;;
27740;SDS011;15134;48.768;9.184;2023-02-01T04:56:34;802.13;;;625.25;;
27740;SDS011;15134;48.768;9.184;2023-02-01T04:59:02;801.10;;;619.42;;
27740;SDS011;15134;48.768;9.184;2023-02-01T05:01:31;801.20;;;621.95;;
27740;SDS011;15134;48.768;9.184;2023-02-01T05:03:57;803.00;;;627.17;;
27740;SDS011;15134;48.768;9.184;2023-02-01T05:06:25;805.08;;;631.50;;
27740;SDS011;15134;48.768;9.184;2023-02-01T05:08:51;806.93;;;633.13;;
27740;SDS011;15134;48.768;9.184;2023-02-01T05:11:17;802.28;;;626.00;;
27740;SDS011;15134;48.768;9.184;2023-02-01T05:14:02;805.03;;;630.88;;
27740;SDS011;15134;48.768;9.184;2023-02-01T05:16:29;805.37;;;629.70;;
27740;SDS011;15134;48.768;9.184;2023-02-01T05:18:55;806.17;;;632.78;;
27740;SDS011;15134;48.768;9.184;2023-02-01T05:21:21;803.33;;;625.40;;
27740;SDS011;15134;48.768;9.184;2023-02-01T05:23:49;805.35;;;630.03;;
27740;SDS011;15134;48.768;9.184;2023-02-01T05:26:34;805.30;;;632.38;;
27740;SDS011;15134;48.768;9.184;2023-02-01T05:29:02;809.33;;;643.25;;
27740;SDS011;15134;48.768;9.184;2023-02-01T05:31:29;809.27;;;639.07;;
27740;SDS011;15134;48.768;9.184;2023-02-01T05:33:55;806.15;;;634.10;;
27740;SDS011;15134;48.768;9.184;2023-02-01T05:36:21;804.42;;;631.53;;
27740;SDS011;15134;48.768;9.184;2023-02-01T05:38:50;806.28;;;630.88;;
27740;SDS011;15134;48.768;9.184;2023-02-01T05:41:15;809.20;;;636.40;;
27740;SDS011;15134;48.768;9.184;2023-02-01T05:43:41;806.70;;;635.93;;
27740;SDS011;15134;48.768;9.184;2023-02-01T05:46:07;809.75;;;636.95;;
27740;SDS011;15134;48.768;9.184;2023-02-01T05:48:38;806.45;;;634.83;;
27740;SDS011;15134;48.768;9.184;2023-02-01T05:51:05;812.30;;;645.22;;
27740;SDS011;15134;48.768;9.184;2023-02-01T05:53:31;811.17;;;641.40;;
27740;SDS011;15134;48.768;9.184;2023-02-01T05:55:57;808.93;;;637.93;;
27740;SDS011;15134;48.768;9.184;2023-02-01T05:58:23;808.58;;;640.58;;
27740;SDS011;15134;48.768;9.184;2023-02-01T06:00:50;810.10;;;645.75;;
27740;SDS011;15134;48.768;9.184;2023-02-01T06:03:16;811.03;;;643.28;;
27740;SDS011;15134;48.768;9.184;2023-02-01T06:05:45;808.83;;;636.73;;
27740;SDS011;15134;48.768;9.184;2023-02-01T06:08:12;808.50;;;640.00;;
27740;SDS011;15134;48.768;9.184;2023-02-01T06:10:38;806.97;;;634.88;;
27740;SDS011;15134;48.768;9.184;2023-02-01T06:13:04;802.65;;;624.15;;
27740;SDS011;15134;48.768;9.184;2023-02-01T06:15:30;806.27;;;633.27;;
27740;SDS011;15134;48.768;9.184;2023-02-01T06:17:57;800.00;;;620.33;;
27740;SDS011;15134;48.768;9.184;2023-02-01T06:20:32;798.08;;;613.70;;
27740;SDS011;15134;48.768;9.184;2023-02-01T06:22:58;794.30;;;604.27;;
27740;SDS011;15134;48.768;9.184;2023-02-01T06:25:23;794.30;;;610.78;;
27740;SDS011;15134;48.768;9.184;2023-02-01T06:27:49;797.20;;;613.93;;
27740;SDS011;15134;48.768;9.184;2023-02-01T06:30:15;795.10;;;608.77;;
27740;SDS011;15134;48.768;9.184;2023-02-01T06:32:42;797.45;;;615.08;;
27740;SDS011;15134;48.768;9.184;2023-02-01T06:35:08;800.20;;;618.03;;
27740;SDS011;15134;48.768;9.184;2023-02-01T06:37:40;796.63;;;614.17;;
27740;SDS011;15134;48.768;9.184;2023-02-01T06:40:06;802.22;;;626.63;;
27740;SDS011;15134;48.768;9.184;2023-02-01T06:42:33;805.13;;;632.35;;
27740;SDS011;15134;48.768;9.184;2023-02-01T06:44:59;802.67;;;627.58;;
27740;SDS011;15134;48.768;9.184;2023-02-01T06:47:28;805.85;;;634.15;;
27740;SDS011;15134;48.768;9.184;2023-02-01T06:49:54;805.33;;;631.38;;
27740;SDS011;15134;48.768;9.184;2023-02-01T06:52:19;807.95;;;632.13;;
27740;SDS011;15134;48.768;9.184;2023-02-01T06:54:45;807.73;;;638.33;;
27740;SDS011;15134;48.768;9.184;2023-02-01T06:57:11;808.00;;;634.50;;
27740;SDS011;15134;48.768;9.184;2023-02-01T06:59:37;806.45;;;636.72;;
27740;SDS011;15134;48.768;9.184;2023-02-01T07:02:05;804.03;;;631.10;;
27740;SDS011;15134;48.768;9.184;2023-02-01T07:04:30;807.38;;;635.45;;
27740;SDS011;15134;48.768;9.184;2023-02-01T07:06:56;805.53;;;631.97;;
27740;SDS011;15134;48.768;9.184;2023-02-01T07:09:22;805.77;;;630.67;;
27740;SDS011;15134;48.768;9.184;2023-02-01T07:11:50;808.13;;;635.58;;
27740;SDS011;15134;48.768;9.184;2023-02-01T07:14:15;808.13;;;633.83;;
27740;SDS011;15134;48.768;9.184;2023-02-01T07:16:41;808.23;;;631.17;;
27740;SDS011;15134;48.768;9.184;2023-02-01T07:19:07;805.35;;;629.38;;
27740;SDS011;15134;48.768;9.184;2023-02-01T07:21:33;808.22;;;635.65;;
27740;SDS011;15134;48.768;9.184;2023-02-01T07:23:58;804.78;;;629.50;;
27740;SDS011;15134;48.768;9.184;2023-02-01T07:26:24;804.45;;;625.55;;
27740;SDS011;15134;48.768;9.184;2023-02-01T07:28:52;806.13;;;631.45;;
27740;SDS011;15134;48.768;9.184;2023-02-01T07:31:19;810.70;;;640.92;;
27740;SDS011;15134;48.768;9.184;2023-02-01T07:33:47;810.97;;;638.33;;
27740;SDS011;15134;48.768;9.184;2023-02-01T07:36:16;813.95;;;645.47;;
27740;SDS011;15134;48.768;9.184;2023-02-01T07:38:43;808.85;;;633.38;;
27740;SDS011;15134;48.768;9.184;2023-02-01T07:41:09;811.80;;;640.78;;
27740;SDS011;15134;48.768;9.184;2023-02-01T07:43:35;813.70;;;644.28;;
27740;SDS011;15134;48.768;9.184;2023-02-01T07:46:02;810.45;;;642.28;;
27740;SDS011;15134;48.768;9.184;2023-02-01T07:48:29;809.80;;;640.13;;
27740;SDS011;15134;48.768;9.184;2023-02-01T07:50:56;808.70;;;636.72;;
27740;SDS011;15134;48.768;9.184;2023-02-01T07:53:26;808.70;;;632.72;;
27740;SDS011;15134;48.768;9.184;2023-02-01T07:55:53;810.72;;;638.17;;
27740;SDS011;15134;48.768;9.184;2023-02-01T07:58:21;806.63;;;633.25;;
27740;SDS011;15134;48.768;9.184;2023-02-01T08:00:53;808.15;;;634.75;;
27740;SDS011;15134;48.768;9.184;2023-02-01T08:03:41;809.15;;;631.15;;
27740;SDS011;15134;48.768;9.184;2023-02-01T08:06:09;809.75;;;635.92;;
27740;SDS011;15134;48.768;9.184;2023-02-01T08:08:34;812.15;;;641.53;;
27740;SDS011;15134;48.768;9.184;2023-02-01T08:11:01;811.90;;;639.70;;
27740;SDS011;15134;48.768;9.184;2023-02-01T08:13:30;811.28;;;641.40;;
27740;SDS011;15134;48.768;9.184;2023-02-01T08:15:59;810.03;;;635.03;;
27740;SDS011;15134;48.768;9.184;2023-02-01T08:18:26;812.08;;;640.22;;
27740;SDS011;15134;48.768;9.184;2023-02-01T08:20:52;809.58;;;637.05;;
27740;SDS011;15134;48.768;9.184;2023-02-01T08:23:19;810.50;;;637.67;;
27740;SDS011;15134;48.768;9.184;2023-02-01T08:25:45;810.85;;;642.53;;
27740;SDS011;15134;48.768;9.184;2023-02-01T08:28:11;810.97;;;641.13;;
27740;SDS011;15134;48.768;9.184;2023-02-01T08:30:37;815.08;;;646.45;;
27740;SDS011;15134;48.768;9.184;2023-02-01T08:33:05;815.47;;;646.70;;
27740;SDS011;15134;48.768;9.184;2023-02-01T08:35:32;816.08;;;651.25;;
27740;SDS011;15134;48.768;9.184;2023-02-01T08:38:00;813.20;;;643.42;;
27740;SDS011;15134;48.768;9.184;2023-02-01T08:40:26;812.65;;;641.55;;
27740;SDS011;15134;48.768;9.184;2023-02-01T08:42:52;810.67;;;635.53;;
27740;SDS011;15134;48.768;9.184;2023-02-01T08:45:22;809.92;;;633.72;;
27740;SDS011;15134;48.768;9.184;2023-02-01T08:47:59;808.17;;;636.30;;
27740;SDS011;15134;48.768;9.184;2023-02-01T08:50:25;810.28;;;635.08;;
27740;SDS011;15134;48.768;9.184;2023-02-01T08:52:51;810.10;;;633.50;;
27740;SDS011;15134;48.768;9.184;2023-02-01T08:55:18;814.25;;;643.85;;
27740;SDS011;15134;48.768;9.184;2023-02-01T08:57:44;816.27;;;649.83;;
27740;SDS011;15134;48.768;9.184;2023-02-01T09:00:14;811.13;;;637.38;;
27740;SDS011;15134;48.768;9.184;2023-02-01T09:02:41;820.65;;;656.08;;
27740;SDS011;15134;48.768;9.184;2023-02-01T09:05:07;820.25;;;657.50;;
27740;SDS011;15134;48.768;9.184;2023-02-01T09:07:34;823.38;;;662.70;;
27740;SDS011;15134;48.768;9.184;2023-02-01T09:09:59;824.50;;;660.85;;
27740;SDS011;15134;48.768;9.184;2023-02-01T09:12:27;823.05;;;657.70;;
27740;SDS011;15134;48.768;9.184;2023-02-01T09:14:54;823.22;;;662.65;;
27740;SDS011;15134;48.768;9.184;2023-02-01T09:17:25;825.10;;;665.35;;
27740;SDS011;15134;48.768;9.184;2023-02-01T09:19:51;819.97;;;655.42;;
27740;SDS011;15134;48.768;9.184;2023-02-01T09:22:19;825.08;;;663.47;;
27740;SDS011;15134;48.768;9.184;2023-02-01T09:24:45;827.17;;;667.20;;
27740;SDS011;15134;48.768;9.184;2023-02-01T09:27:13;824.60;;;661.45;;
27740;SDS011;15134;48.768;9.184;2023-02-01T09:29:38;825.80;;;662.92;;
27740;SDS011;15134;48.768;9.184;2023-02-01T09:32:04;825.63;;;659.75;;
27740;SDS011;15134;48.768;9.184;2023-02-01T09:34:31;824.20;;;663.17;;
27740;SDS011;15134;48.768;9.184;2023-02-01T09:37:03;825.70;;;664.72;;
27740;SDS011;15134;48.768;9.184;2023-02-01T09:39:29;823.35;;;658.45;;
27740;SDS011;15134;48.768;9.184;2023-02-01T09:42:15;828.20;;;670.10;;
27740;SDS011;15134;48.768;9.184;2023-02-01T09:47:51;832.03;;;677.58;;
27740;SDS011;15134;48.768;9.184;2023-02-01T09:50:21;830.87;;;669.10;;
27740;SDS011;15134;48.768;9.184;2023-02-01T09:55:54;831.83;;;671.38;;
27740;SDS011;15134;48.768;9.184;2023-02-01T10:01:16;828.17;;;669.88;;
27740;SDS011;15134;48.768;9.184;2023-02-01T10:03:49;830.35;;;671.47;;
27740;SDS011;15134;48.768;9.184;2023-02-01T10:06:24;829.72;;;665.70;;
27740;SDS011;15134;48.768;9.184;2023-02-01T10:09:25;830.63;;;670.27;;
27740;SDS011;15134;48.768;9.184;2023-02-01T10:15:19;832.97;;;680.75;;
27740;SDS011;15134;48.768;9.184;2023-02-01T10:17:54;835.55;;;678.85;;
27740;SDS011;15134;48.768;9.184;2023-02-01T10:21:15;824.78;;;661.08;;
27740;SDS011;15134;48.768;9.184;2023-02-01T10:26:39;827.47;;;665.08;;
27740;SDS011;15134;48.768;9.184;2023-02-01T10:29:16;823.03;;;656.47;;
27740;SDS011;15134;48.768;9.184;2023-02-01T10:31:47;827.70;;;663.42;;
27740;SDS011;15134;48.768;9.184;2023-02-01T10:34:32;828.92;;;666.10;;
27740;SDS011;15134;48.768;9.184;2023-02-01T10:37:01;834.50;;;677.63;;
27740;SDS011;15134;48.768;9.184;2023-02-01T10:39:37;832.22;;;673.67;;
27740;SDS011;15134;48.768;9.184;2023-02-01T10:42:03;835.10;;;678.58;;
27740;SDS011;15134;48.768;9.184;2023-02-01T10:44:32;830.17;;;668.95;;
27740;SDS011;15134;48.768;9.184;2023-02-01T10:47:05;829.30;;;669.20;;
27740;SDS011;15134;48.768;9.184;2023-02-01T10:52:19;830.03;;;666.30;;
27740;SDS011;15134;48.768;9.184;2023-02-01T10:54:54;825.08;;;658.88;;
27740;SDS011;15134;48.768;9.184;2023-02-01T10:57:24;821.80;;;656.70;;
27740;SDS011;15134;48.768;9.184;2023-02-01T10:59:53;823.58;;;661.47;;
27740;SDS011;15134;48.768;9.184;2023-02-01T11:02:26;828.22;;;670.30;;
27740;SDS011;15134;48.768;9.184;2023-02-01T11:07:28;830.47;;;669.40;;
27740;SDS011;15134;48.768;9.184;2023-02-01T11:09:54;827.67;;;661.85;;
27740;SDS011;15134;48.768;9.184;2023-02-01T11:12:26;827.80;;;664.08;;
27740;SDS011;15134;48.768;9.184;2023-02-01T11:15:21;827.53;;;660.05;;
27740;SDS011;15134;48.768;9.184;2023-02-01T11:17:47;825.40;;;659.63;;
27740;SDS011;15134;48.768;9.184;2023-02-01T11:20:21;827.42;;;659.75;;
27740;SDS011;15134;48.768;9.184;2023-02-01T11:23:11;829.75;;;659.72;;
27740;SDS011;15134;48.768;9.184;2023-02-01T11:28:20;827.03;;;659.65;;
27740;SDS011;15134;48.768;9.184;2023-02-01T11:30:49;828.65;;;662.03;;
27740;SDS011;15134;48.768;9.184;2023-02-01T11:33:19;827.80;;;669.72;;
27740;SDS011;15134;48.768;9.184;2023-02-01T11:35:50;833.78;;;669.40;;
27740;SDS011;15134;48.768;9.184;2023-02-01T11:38:30;833.58;;;669.75;;
27740;SDS011;15134;48.768;9.184;2023-02-01T11:41:14;833.80;;;679.17;;
27740;SDS011;15134;48.768;9.184;2023-02-01T11:44:15;834.40;;;674.33;;
27740;SDS011;15134;48.768;9.184;2023-02-01T11:46:46;833.65;;;673.75;;
27740;SDS011;15134;48.768;9.184;2023-02-01T11:49:25;832.72;;;676.58;;
27740;SDS011;15134;48.768;9.184;2023-02-01T11:54:46;831.00;;;671.22;;
27740;SDS011;15134;48.768;9.184;2023-02-01T11:57:37;833.42;;;670.65;;
27740;SDS011;15134;48.768;9.184;2023-02-01T12:06:04;832.17;;;667.28;;
27740;SDS011;15134;48.768;9.184;2023-02-01T12:09:04;831.95;;;676.08;;
27740;SDS011;15134;48.768;9.184;2023-02-01T12:20:56;831.17;;;670.22;;
27740;SDS011;15134;48.768;9.184;2023-02-01T12:26:38;834.25;;;676.67;;
27740;SDS011;15134;48.768;9.184;2023-02-01T12:40:43;830.90;;;669.42;;
27740;SDS011;15134;48.768;9.184;2023-02-01T12:43:33;828.38;;;663.63;;
27740;SDS011;15134;48.768;9.184;2023-02-01T12:46:23;828.03;;;666.08;;
27740;SDS011;15134;48.768;9.184;2023-02-01T12:51:50;829.78;;;665.65;;
27740;SDS011;15134;48.768;9.184;2023-02-01T12:54:29;830.55;;;669.83;;
27740;SDS011;15134;48.768;9.184;2023-02-01T12:57:11;826.25;;;658.38;;
27740;SDS011;15134;48.768;9.184;2023-02-01T12:59:47;828.03;;;661.43;;
27740;SDS011;15134;48.768;9.184;2023-02-01T13:02:37;828.70;;;667.47;;
27740;SDS011;15134;48.768;9.184;2023-02-01T13:05:24;831.17;;;671.97;;
27740;SDS011;15134;48.768;9.184;2023-02-01T13:08:06;824.28;;;663.42;;
27740;SDS011;15134;48.768;9.184;2023-02-01T13:10:42;829.83;;;665.33;;
27740;SDS011;15134;48.768;9.184;2023-02-01T13:18:59;828.75;;;667.63;;
27740;SDS011;15134;48.768;9.184;2023-02-01T13:24:49;829.50;;;665.80;;
27740;SDS011;15134;48.768;9.184;2023-02-01T13:27:28;823.30;;;658.17;;
27740;SDS011;15134;48.768;9.184;2023-02-01T13:35:22;834.15;;;670.85;;
27740;SDS011;15134;48.768;9.184;2023-02-01T13:40:58;830.97;;;673.22;;
27740;SDS011;15134;48.768;9.184;2023-02-01T13:43:38;828.67;;;667.15;;
27740;SDS011;15134;48.768;9.184;2023-02-01T13:46:07;830.38;;;675.33;;
27740;SDS011;15134;48.768;9.184;2023-02-01T13:51:14;833.40;;;677.25;;
27740;SDS011;15134;48.768;9.184;2023-02-01T13:53:45;832.03;;;676.80;;
27740;SDS011;15134;48.768;9.184;2023-02-01T13:56:15;829.95;;;674.50;;
27740;SDS011;15134;48.768;9.184;2023-02-01T13:58:47;828.60;;;669.40;;
27740;SDS011;15134;48.768;9.184;2023-02-01T14:03:57;829.95;;;675.90;;
27740;SDS011;15134;48.768;9.184;2023-02-01T14:17:51;825.65;;;666.08;;
27740;SDS011;15134;48.768;9.184;2023-02-01T14:23:14;831.30;;;672.38;;
27740;SDS011;15134;48.768;9.184;2023-02-01T14:25:41;831.05;;;671.20;;
27740;SDS011;15134;48.768;9.184;2023-02-01T14:28:24;827.87;;;669.67;;
27740;SDS011;15134;48.768;9.184;2023-02-01T14:30:53;826.08;;;664.13;;
27740;SDS011;15134;48.768;9.184;2023-02-01T14:33:22;829.25;;;667.65;;
27740;SDS011;15134;48.768;9.184;2023-02-01T14:36:22;829.63;;;670.87;;
27740;SDS011;15134;48.768;9.184;2023-02-01T14:38:47;828.90;;;663.15;;
27740;SDS011;15134;48.768;9.184;2023-02-01T14:41:25;825.45;;;663.50;;
27740;SDS011;15134;48.768;9.184;2023-02-01T14:49:42;824.75;;;660.45;;
27740;SDS011;15134;48.768;9.184;2023-02-01T14:52:35;822.67;;;656.78;;
27740;SDS011;15134;48.768;9.184;2023-02-01T14:55:27;828.95;;;665.55;;
27740;SDS011;15134;48.768;9.184;2023-02-01T14:58:42;828.50;;;664.17;;
27740;SDS011;15134;48.768;9.184;2023-02-01T15:01:14;826.72;;;661.58;;
27740;SDS011;15134;48.768;9.184;2023-02-01T15:17:23;822.53;;;652.93;;
27740;SDS011;15134;48.768;9.184;2023-02-01T15:20:15;822.83;;;648.78;;
27740;SDS011;15134;48.768;9.184;2023-02-01T15:23:02;821.80;;;654.60;;
27740;SDS011;15134;48.768;9.184;2023-02-01T15:25:36;821.17;;;652.73;;
27740;SDS011;15134;48.768;9.184;2023-02-01T15:28:03;822.80;;;654.40;;
27740;SDS011;15134;48.768;9.184;2023-02-01T15:30:32;825.08;;;661.88;;
27740;SDS011;15134;48.768;9.184;2023-02-01T15:33:15;824.97;;;657.08;;
27740;SDS011;15134;48.768;9.184;2023-02-01T15:38:30;822.20;;;653.75;;
27740;SDS011;15134;48.768;9.184;2023-02-01T15:41:11;823.45;;;656.42;;
27740;SDS011;15134;48.768;9.184;2023-02-01T15:46:32;824.97;;;657.35;;
27740;SDS011;15134;48.768;9.184;2023-02-01T15:49:01;821.83;;;654.53;;
27740;SDS011;15134;48.768;9.184;2023-02-01T15:51:29;825.55;;;659.30;;
27740;SDS011;15134;48.768;9.184;2023-02-01T15:54:07;823.35;;;657.33;;
27740;SDS011;15134;48.768;9.184;2023-02-01T15:56:44;827.72;;;662.42;;
27740;SDS011;15134;48.768;9.184;2023-02-01T15:59:19;823.53;;;660.07;;
27740;SDS011;15134;48.768;9.184;2023-02-01T16:01:48;826.33;;;658.20;;
27740;SDS011;15134;48.768;9.184;2023-02-01T16:06:52;824.87;;;656.07;;
27740;SDS011;15134;48.768;9.184;2023-02-01T16:09:21;819.95;;;653.33;;
27740;SDS011;15134;48.768;9.184;2023-02-01T16:14:25;822.28;;;662.67;;
27740;SDS011;15134;48.768;9.184;2023-02-01T16:16:52;828.77;;;669.47;;
27740;SDS011;15134;48.768;9.184;2023-02-01T16:19:19;829.20;;;670.15;;
27740;SDS011;15134;48.768;9.184;2023-02-01T16:21:46;825.22;;;665.47;;
27740;SDS011;15134;48.768;9.184;2023-02-01T16:24:12;826.65;;;657.40;;
27740;SDS011;15134;48.768;9.184;2023-02-01T16:26:38;826.50;;;666.22;;
27740;SDS011;15134;48.768;9.184;2023-02-01T16:29:04;822.40;;;651.38;;
27740;SDS011;15134;48.768;9.184;2023-02-01T16:31:37;817.42;;;648.58;;
27740;SDS011;15134;48.768;9.184;2023-02-01T16:34:04;823.45;;;658.28;;
27740;SDS011;15134;48.768;9.184;2023-02-01T16:36:31;820.35;;;652.05;;
27740;SDS011;15134;48.768;9.184;2023-02-01T16:38:58;823.38;;;651.05;;
27740;SDS011;15134;48.768;9.184;2023-02-01T16:41:24;819.65;;;653.65;;
27740;SDS011;15134;48.768;9.184;2023-02-01T16:43:51;822.45;;;656.78;;
27740;SDS011;15134;48.768;9.184;2023-02-01T16:46:20;821.78;;;648.60;;
27740;SDS011;15134;48.768;9.184;2023-02-01T16:48:54;821.95;;;657.00;;